Time;durP1;ratioP1;P1;durP2;ratioP2;P2;SDS_P1;SDS_P2;PMS_P1;PMS_P2;Temp;Humidity;BMP_temperature;BMP_pressure;BME280_temperature;BME280_humidity;BME280_pressure;Samples;Min_cycle;Max_cycle;Signal;HPM_P1;HPM_P2
2022/05/25 00:00:08;;;;;;;20.85;8.13;;;21.40;99.90;;;;;;5039844;28;20040;-81
2022/05/25 00:02:34;;;;;;;21.17;8.73;;;21.40;99.90;;;;;;5036560;28;20025;-82
2022/05/25 00:04:59;;;;;;;30.50;9.43;;;21.50;99.90;;;;;;5046307;28;20455;-83
2022/05/25 00:07:25;;;;;;;19.77;9.48;;;21.40;99.90;;;;;;5022505;28;20387;-81
2022/05/25 00:09:54;;;;;;;24.00;9.52;;;21.10;99.90;;;;;;5045483;28;20351;-82
2022/05/25 00:12:22;;;;;;;23.50;9.50;;;21.00;99.90;;;;;;5040274;28;20033;-83
2022/05/25 00:14:51;;;;;;;18.00;8.63;;;20.80;99.90;;;;;;5019797;28;20037;-82
2022/05/25 00:17:17;;;;;;;18.55;8.93;;;20.80;99.90;;;;;;5025400;28;20025;-81
2022/05/25 00:20:00;;;;;;;22.63;9.10;;;20.60;99.90;;;;;;5047484;28;20016;-82
2022/05/25 00:22:47;;;;;;;21.05;9.63;;;20.60;99.90;;;;;;5042366;28;20502;-82
2022/05/25 00:25:18;;;;;;;26.52;10.13;;;20.40;99.90;;;;;;5035375;28;20056;-81
2022/05/25 00:27:44;;;;;;;21.30;10.93;;;20.40;99.90;;;;;;5043186;28;20014;-81
2022/05/25 00:30:12;;;;;;;19.52;10.23;;;20.20;99.90;;;;;;5039119;28;20029;-81
2022/05/25 00:32:38;;;;;;;26.13;10.80;;;20.10;99.90;;;;;;5042623;28;20287;-81
2022/05/25 00:35:06;;;;;;;29.25;10.55;;;20.00;99.90;;;;;;5035816;28;20033;-81
2022/05/25 00:37:32;;;;;;;18.58;10.40;;;19.90;99.90;;;;;;5040768;28;20117;-81
2022/05/25 00:39:57;;;;;;;24.20;10.80;;;19.90;99.90;;;;;;5045912;28;20021;-82
2022/05/25 00:42:23;;;;;;;19.10;9.88;;;19.90;99.90;;;;;;5024969;28;20029;-82
2022/05/25 00:44:49;;;;;;;19.58;10.32;;;19.90;99.90;;;;;;5035111;28;20037;-82
2022/05/25 00:47:20;;;;;;;25.10;10.27;;;19.90;99.90;;;;;;5042672;28;20104;-82
2022/05/25 00:49:46;;;;;;;20.55;10.35;;;19.90;99.90;;;;;;5038893;28;20029;-82
2022/05/25 00:52:14;;;;;;;20.08;10.93;;;19.90;99.90;;;;;;5042075;28;20044;-82
2022/05/25 00:54:42;;;;;;;15.25;9.80;;;19.90;99.90;;;;;;5045135;28;20117;-83
2022/05/25 00:57:16;;;;;;;23.50;9.75;;;19.90;99.90;;;;;;5024154;28;20021;-82
2022/05/25 01:00:04;;;;;;;16.88;9.57;;;19.90;99.90;;;;;;5045507;28;20112;-83
2022/05/25 01:02:33;;;;;;;22.92;10.55;;;19.90;99.90;;;;;;5041670;28;20485;-82
2022/05/25 01:04:59;;;;;;;19.73;9.82;;;19.90;99.90;;;;;;5020714;28;20059;-83
2022/05/25 01:07:27;;;;;;;17.80;9.30;;;19.90;99.90;;;;;;5040263;28;20025;-83
2022/05/25 01:10:03;;;;;;;18.95;10.07;;;19.90;99.90;;;;;;5040218;28;20021;-82
2022/05/25 01:12:50;;;;;;;21.05;9.07;;;19.90;99.90;;;;;;5041611;28;20025;-82
2022/05/25 01:15:21;;;;;;;18.25;8.63;;;19.90;99.90;;;;;;5039679;28;20106;-82
2022/05/25 01:21:12;;;;;;;22.08;9.75;;;19.90;99.90;;;;;;5039878;28;20020;-82
2022/05/25 01:23:58;;;;;;;24.77;9.77;;;19.80;99.90;;;;;;5042865;28;20048;-82
2022/05/25 01:26:53;;;;;;;19.05;9.98;;;19.80;99.90;;;;;;5042373;28;20029;-82
2022/05/25 01:29:25;;;;;;;21.05;9.60;;;19.70;99.90;;;;;;5013339;28;20039;-81
2022/05/25 01:31:55;;;;;;;12.57;8.77;;;19.70;99.90;;;;;;5024340;28;20458;-82
2022/05/25 01:34:34;;;;;;;19.80;9.98;;;19.70;99.90;;;;;;5046016;28;20017;-81
2022/05/25 01:37:11;;;;;;;18.52;9.52;;;19.70;99.90;;;;;;5034386;28;20519;-81
2022/05/25 01:39:44;;;;;;;18.60;9.38;;;19.60;99.90;;;;;;5034766;28;20045;-82
2022/05/25 01:42:13;;;;;;;;;;;19.60;99.90;;;;;;5040207;28;20444;-83
2022/05/25 01:44:56;;;;;;;29.08;9.55;;;19.60;99.90;;;;;;5037236;28;19956;-83
2022/05/25 01:47:28;;;;;;;18.63;9.18;;;19.60;99.90;;;;;;5040134;28;20067;-83
2022/05/25 01:50:00;;;;;;;22.33;10.18;;;19.50;99.90;;;;;;5044969;28;20484;-82
2022/05/25 01:52:31;;;;;;;18.75;9.85;;;19.50;99.90;;;;;;5033908;28;20396;-82
2022/05/25 01:55:02;;;;;;;30.27;9.95;;;19.50;99.90;;;;;;5015396;28;20059;-82
2022/05/25 01:57:31;;;;;;;14.10;8.73;;;19.50;99.90;;;;;;5022237;28;20017;-82
2022/05/25 01:59:56;;;;;;;18.40;9.07;;;19.50;99.90;;;;;;5044279;28;20036;-81
2022/05/25 02:05:13;;;;;;;17.85;9.45;;;19.50;99.90;;;;;;5032577;28;20124;-81
2022/05/25 02:08:07;;;;;;;24.65;9.02;;;19.50;99.90;;;;;;5037952;28;20506;-82
2022/05/25 02:10:49;;;;;;;21.63;9.65;;;19.50;99.90;;;;;;5036195;28;20029;-81
2022/05/25 02:13:27;;;;;;;21.93;9.80;;;19.50;99.90;;;;;;5024403;28;20104;-82
2022/05/25 02:16:19;;;;;;;19.77;10.20;;;19.50;99.90;;;;;;5036267;28;20021;-82
2022/05/25 02:19:05;;;;;;;18.67;9.10;;;19.50;99.90;;;;;;5035373;28;20017;-82
2022/05/25 02:21:39;;;;;;;20.67;9.25;;;19.40;99.90;;;;;;5039920;28;20102;-81
2022/05/25 02:24:22;;;;;;;17.25;9.25;;;19.40;99.90;;;;;;5034306;28;20075;-81
2022/05/25 02:26:51;;;;;;;;;;;19.40;99.90;;;;;;5044145;28;20289;-82
2022/05/25 02:29:35;;;;;;;19.17;8.90;;;19.40;99.90;;;;;;5044726;28;19909;-81
2022/05/25 02:32:16;;;;;;;17.92;9.38;;;19.40;99.90;;;;;;5038727;28;20061;-82
2022/05/25 02:34:47;;;;;;;18.20;9.25;;;19.40;99.90;;;;;;5032902;28;20036;-83
2022/05/25 02:37:15;;;;;;;19.60;8.63;;;19.30;99.90;;;;;;5039365;28;20384;-83
2022/05/25 02:39:42;;;;;;;21.85;9.35;;;19.30;99.90;;;;;;5025211;28;20025;-82
2022/05/25 02:42:17;;;;;;;17.30;8.75;;;19.30;99.90;;;;;;5038782;28;20029;-83
2022/05/25 02:44:43;;;;;;;22.25;9.07;;;19.30;99.90;;;;;;5028123;28;20037;-83
2022/05/25 02:47:09;;;;;;;24.23;8.93;;;19.30;99.90;;;;;;5033980;28;20527;-82
2022/05/25 02:49:39;;;;;;;18.98;9.48;;;19.30;99.90;;;;;;5033309;28;20037;-81
2022/05/25 02:52:09;;;;;;;19.20;9.15;;;19.20;99.90;;;;;;5030943;28;20076;-82
2022/05/25 02:54:35;;;;;;;14.63;9.38;;;19.20;99.90;;;;;;5044459;28;20037;-82
2022/05/25 02:57:01;;;;;;;20.95;9.43;;;19.10;99.90;;;;;;5042259;28;20024;-82
2022/05/25 02:59:27;;;;;;;19.08;10.15;;;19.10;99.90;;;;;;5038572;28;20022;-83
2022/05/25 03:01:52;;;;;;;14.48;8.85;;;19.10;99.90;;;;;;5041504;28;20026;-82
2022/05/25 03:04:18;;;;;;;18.92;8.98;;;19.10;99.90;;;;;;5036789;28;20025;-82
2022/05/25 03:06:44;;;;;;;16.75;8.68;;;19.10;99.90;;;;;;5024035;28;20036;-82
2022/05/25 03:09:10;;;;;;;16.63;9.52;;;19.10;99.90;;;;;;5040411;28;20028;-83
2022/05/25 03:11:35;;;;;;;14.77;8.23;;;19.00;99.90;;;;;;5027372;28;20025;-83
2022/05/25 03:14:01;;;;;;;17.35;8.60;;;19.10;99.90;;;;;;5042096;28;20039;-84
2022/05/25 03:16:27;;;;;;;16.48;8.85;;;19.10;99.90;;;;;;5043206;28;20025;-83
2022/05/25 03:18:57;;;;;;;17.38;8.57;;;19.10;99.90;;;;;;5042122;28;20025;-82
2022/05/25 03:21:22;;;;;;;22.45;8.95;;;19.00;99.90;;;;;;5043300;28;20067;-83
2022/05/25 03:23:48;;;;;;;24.33;8.93;;;19.00;99.90;;;;;;5027655;28;20064;-83
2022/05/25 03:26:15;;;;;;;19.27;9.18;;;19.00;99.90;;;;;;5022949;28;20507;-83
2022/05/25 03:28:41;;;;;;;20.45;9.10;;;18.90;99.90;;;;;;5024013;28;20075;-83
2022/05/25 03:31:07;;;;;;;15.93;8.40;;;18.90;99.90;;;;;;5046605;28;20026;-82
2022/05/25 03:33:33;;;;;;;19.17;8.93;;;18.90;99.90;;;;;;5043541;28;20494;-82
2022/05/25 03:35:59;;;;;;;16.15;8.18;;;19.00;99.90;;;;;;5039276;28;20052;-83
2022/05/25 03:38:27;;;;;;;24.92;9.02;;;18.90;99.90;;;;;;5026617;28;20051;-82
2022/05/25 03:40:53;;;;;;;24.23;8.93;;;19.00;99.90;;;;;;5016205;28;20028;-82
2022/05/25 03:43:19;;;;;;;17.75;8.40;;;19.10;99.90;;;;;;5039430;28;20045;-82
2022/05/25 03:45:48;;;;;;;23.73;8.85;;;19.20;99.90;;;;;;5022809;28;20033;-83
2022/05/25 03:48:14;;;;;;;21.75;8.77;;;19.20;99.90;;;;;;5042016;28;20101;-82
2022/05/25 03:50:43;;;;;;;20.88;8.23;;;19.20;99.90;;;;;;5041459;28;20128;-82
2022/05/25 03:53:12;;;;;;;18.33;8.23;;;19.30;99.90;;;;;;5040954;28;20140;-83
2022/05/25 03:55:39;;;;;;;15.55;8.40;;;19.30;99.90;;;;;;5040480;28;20049;-83
2022/05/25 03:58:05;;;;;;;17.95;8.18;;;19.40;99.90;;;;;;5043204;28;20025;-82
2022/05/25 04:00:31;;;;;;;18.40;8.35;;;19.40;99.90;;;;;;5043556;28;20029;-83
2022/05/25 04:02:59;;;;;;;15.25;7.75;;;19.50;99.90;;;;;;5042061;28;20048;-83
2022/05/25 04:05:26;;;;;;;17.40;7.95;;;19.50;99.90;;;;;;5041389;28;20052;-83
2022/05/25 04:07:54;;;;;;;20.75;8.57;;;19.40;99.90;;;;;;5028196;28;20032;-83
2022/05/25 04:10:21;;;;;;;17.70;8.48;;;19.40;99.90;;;;;;5018148;28;20432;-84
2022/05/25 04:12:47;;;;;;;16.58;7.72;;;19.50;99.90;;;;;;5043537;28;20021;-84
2022/05/25 04:15:16;;;;;;;16.60;7.75;;;19.50;99.90;;;;;;5041560;28;20021;-83
2022/05/25 04:17:45;;;;;;;22.52;9.43;;;19.50;99.90;;;;;;5022951;28;20029;-82
2022/05/25 04:20:11;;;;;;;18.92;8.52;;;19.50;99.90;;;;;;5047978;28;20072;-83
2022/05/25 04:22:37;;;;;;;20.08;8.88;;;19.50;99.90;;;;;;5025492;28;20108;-82
2022/05/25 04:25:10;;;;;;;20.75;7.75;;;19.60;99.90;;;;;;5035737;28;20543;-82
2022/05/25 04:27:37;;;;;;;17.50;7.90;;;19.60;99.90;;;;;;5021920;28;20120;-83
2022/05/25 04:30:04;;;;;;;18.50;7.57;;;19.70;99.90;;;;;;5044919;28;20025;-83
2022/05/25 04:32:30;;;;;;;15.55;7.68;;;19.70;99.90;;;;;;5042578;28;20021;-83
2022/05/25 04:34:58;;;;;;;18.58;7.45;;;19.80;99.90;;;;;;5021594;28;20033;-82
2022/05/25 04:40:10;;;;;;;13.50;7.68;;;19.90;99.90;;;;;;5045252;28;20511;-82
2022/05/25 04:42:35;;;;;;;17.15;7.40;;;20.10;99.90;;;;;;5024823;28;20435;-83
2022/05/25 04:45:02;;;;;;;13.20;7.30;;;20.20;99.90;;;;;;5040286;28;20037;-82
2022/05/25 04:47:28;;;;;;;17.35;7.07;;;20.20;99.90;;;;;;5034383;28;20515;-83
2022/05/25 04:49:54;;;;;;;17.38;6.85;;;20.30;99.90;;;;;;5033183;28;20103;-82
2022/05/25 04:52:20;;;;;;;15.70;7.03;;;20.30;99.90;;;;;;5039739;28;20412;-83
2022/05/25 04:54:45;;;;;;;16.02;7.88;;;20.40;99.90;;;;;;5032560;28;20033;-83
2022/05/25 04:57:20;;;;;;;18.95;8.15;;;20.40;99.90;;;;;;5024382;28;20028;-83
2022/05/25 04:59:54;;;;;;;17.83;7.90;;;20.40;99.90;;;;;;5043267;28;20061;-83
2022/05/25 05:02:20;;;;;;;18.15;7.82;;;20.50;99.90;;;;;;5018445;28;20159;-83
2022/05/25 05:04:47;;;;;;;13.82;7.40;;;20.50;99.90;;;;;;5019779;28;20053;-82
2022/05/25 05:07:14;;;;;;;13.75;7.10;;;20.60;99.90;;;;;;5024102;28;20075;-82
2022/05/25 05:09:42;;;;;;;17.00;6.93;;;20.60;99.90;;;;;;5045743;28;20162;-82
2022/05/25 05:12:09;;;;;;;15.35;7.03;;;20.70;99.90;;;;;;5041276;28;20508;-82
2022/05/25 05:14:34;;;;;;;13.70;7.43;;;20.80;99.90;;;;;;5037595;28;20083;-82
2022/05/25 05:17:03;;;;;;;14.25;6.95;;;20.80;99.90;;;;;;5041816;28;20493;-83
2022/05/25 05:19:29;;;;;;;18.10;7.32;;;20.90;99.90;;;;;;5035844;28;20048;-83
2022/05/25 05:21:57;;;;;;;13.98;6.55;;;21.00;99.90;;;;;;5037465;28;20028;-82
2022/05/25 05:24:24;;;;;;;17.60;6.80;;;21.00;99.90;;;;;;5036405;28;20108;-83
2022/05/25 05:26:49;;;;;;;14.90;7.25;;;21.10;99.90;;;;;;5042053;28;20032;-83
2022/05/25 05:29:15;;;;;;;23.02;7.72;;;21.10;99.90;;;;;;5046223;28;20550;-82
2022/05/25 05:31:41;;;;;;;16.65;6.97;;;21.20;99.90;;;;;;5042583;28;20026;-82
2022/05/25 05:34:07;;;;;;;16.70;7.10;;;21.30;99.90;;;;;;5026528;28;20494;-82
2022/05/25 05:36:44;;;;;;;19.08;6.80;;;21.40;99.90;;;;;;5036928;28;20033;-82
2022/05/25 05:39:12;;;;;;;16.98;6.60;;;21.60;99.90;;;;;;5024040;28;20021;-82
2022/05/25 05:41:52;;;;;;;20.77;7.00;;;21.70;99.90;;;;;;5040976;28;20120;-83
2022/05/25 05:44:25;;;;;;;15.85;7.28;;;21.70;99.90;;;;;;5037841;28;20626;-83
2022/05/25 05:46:53;;;;;;;16.20;6.22;;;21.80;99.90;;;;;;5042039;28;20022;-82
2022/05/25 05:49:18;;;;;;;15.23;6.38;;;21.90;99.90;;;;;;5018879;28;20476;-92
2022/05/25 05:51:44;;;;;;;15.48;6.70;;;22.00;99.90;;;;;;5039637;28;20091;-84
2022/05/25 05:54:12;;;;;;;18.33;6.72;;;22.00;99.90;;;;;;5021747;28;20057;-84
2022/05/25 05:56:38;;;;;;;19.83;7.00;;;22.10;99.90;;;;;;5042696;28;20472;-88
2022/05/25 05:59:04;;;;;;;17.95;6.65;;;22.20;99.90;;;;;;5037412;28;20075;-87
2022/05/25 06:01:30;;;;;;;20.58;6.13;;;22.20;99.90;;;;;;5040185;28;20025;-88
2022/05/25 06:03:56;;;;;;;14.80;5.75;;;22.30;99.90;;;;;;5019265;28;20021;-88
2022/05/25 06:06:23;;;;;;;20.83;7.05;;;22.40;99.90;;;;;;5039167;28;20099;-84
2022/05/25 06:08:49;;;;;;;18.17;6.32;;;22.50;99.90;;;;;;5041212;28;20690;-84
2022/05/25 06:11:17;;;;;;;20.25;6.65;;;22.60;99.90;;;;;;5039217;28;20682;-84
2022/05/25 06:13:47;;;;;;;10.35;6.30;;;22.60;99.90;;;;;;5038949;28;20030;-88
2022/05/25 06:21:41;;;;;;;24.27;7.00;;;22.80;99.90;;;;;;5039896;28;20036;-85
2022/05/25 06:24:07;;;;;;;14.93;6.32;;;22.90;99.90;;;;;;5044649;28;20396;-84
2022/05/25 06:26:33;;;;;;;19.20;6.82;;;22.90;99.90;;;;;;5019704;28;20040;-83
2022/05/25 06:29:01;;;;;;;19.23;7.30;;;23.00;99.90;;;;;;5041959;28;20107;-82
2022/05/25 06:31:33;;;;;;;16.42;6.38;;;23.00;99.90;;;;;;5019289;28;20034;-80
2022/05/25 06:33:59;;;;;;;14.23;5.70;;;23.10;99.90;;;;;;5036868;28;20079;-80
2022/05/25 06:36:27;;;;;;;14.57;6.25;;;23.20;99.90;;;;;;5034160;28;20496;-82
2022/05/25 06:38:54;;;;;;;14.90;6.40;;;23.20;99.90;;;;;;5015743;28;20037;-80
2022/05/25 06:41:21;;;;;;;17.98;5.40;;;23.20;99.90;;;;;;5038015;28;20029;-81
2022/05/25 06:43:47;;;;;;;14.93;6.35;;;23.40;99.90;;;;;;5035039;28;20033;-79
2022/05/25 06:46:18;;;;;;;14.15;6.53;;;23.50;99.90;;;;;;5012794;28;20037;-82
2022/05/25 06:48:45;;;;;;;18.95;5.80;;;23.60;99.90;;;;;;5020475;28;20029;-80
2022/05/25 06:51:12;;;;;;;17.13;6.03;;;23.70;99.90;;;;;;5037151;28;20045;-82
2022/05/25 06:53:38;;;;;;;17.02;6.45;;;23.80;99.90;;;;;;5035666;28;20033;-86
2022/05/25 06:56:05;;;;;;;23.63;7.25;;;23.90;99.90;;;;;;5039557;28;20026;-83
2022/05/25 06:58:31;;;;;;;16.65;6.15;;;24.00;99.90;;;;;;5018224;28;20021;-81
2022/05/25 07:00:57;;;;;;;18.38;6.20;;;24.20;99.90;;;;;;5032776;28;20029;-81
2022/05/25 07:03:22;;;;;;;16.88;5.97;;;24.40;99.90;;;;;;5036254;28;20029;-82
2022/05/25 07:05:48;;;;;;;18.65;5.60;;;24.70;99.90;;;;;;5040484;28;20049;-82
2022/05/25 07:08:14;;;;;;;17.17;6.22;;;24.90;99.90;;;;;;5021202;28;20479;-84
2022/05/25 07:10:45;;;;;;;19.83;5.75;;;25.20;99.90;;;;;;5022624;28;20033;-87
2022/05/25 07:13:17;;;;;;;22.75;6.95;;;25.30;99.90;;;;;;5021027;28;20017;-80
2022/05/25 07:15:44;;;;;;;16.27;6.25;;;25.30;99.90;;;;;;5034781;28;20048;-81
2022/05/25 07:18:10;;;;;;;26.40;5.93;;;25.30;99.90;;;;;;5035423;28;20036;-79
2022/05/25 07:20:36;;;;;;;14.77;6.03;;;25.20;99.90;;;;;;5043400;28;20033;-81
2022/05/25 07:23:03;;;;;;;13.57;5.72;;;25.10;99.90;;;;;;5035162;28;20554;-81
2022/05/25 07:25:29;;;;;;;21.50;6.28;;;25.00;99.90;;;;;;5034618;28;20077;-81
2022/05/25 07:27:55;;;;;;;14.80;5.95;;;24.90;99.90;;;;;;5038208;28;20025;-81
2022/05/25 07:30:20;;;;;;;18.85;6.22;;;24.90;99.90;;;;;;5042603;28;20026;-81
2022/05/25 07:32:50;;;;;;;19.70;6.78;;;24.90;99.90;;;;;;5020842;28;20469;-81
2022/05/25 07:35:17;;;;;;;12.60;5.70;;;24.90;99.90;;;;;;5043720;28;20025;-80
2022/05/25 07:37:48;;;;;;;19.30;6.75;;;25.00;99.90;;;;;;5036640;28;20056;-81
2022/05/25 07:40:26;;;;;;;24.73;7.30;;;25.10;99.90;;;;;;5047056;28;20372;-82
2022/05/25 07:43:03;;;;;;;21.48;7.25;;;25.20;99.90;;;;;;5038323;28;20495;-82
2022/05/25 07:45:29;;;;;;;18.08;6.15;;;25.10;99.90;;;;;;5036229;28;20107;-81
2022/05/25 07:47:55;;;;;;;24.02;7.35;;;24.90;99.90;;;;;;5042182;28;20476;-81
2022/05/25 07:50:22;;;;;;;18.63;6.47;;;24.80;99.90;;;;;;5035669;28;20478;-81
2022/05/25 07:52:55;;;;;;;14.90;6.32;;;24.70;99.90;;;;;;5018602;28;20017;-83
2022/05/25 07:55:21;;;;;;;17.58;5.72;;;24.80;99.90;;;;;;5032759;28;20063;-82
2022/05/25 07:57:47;;;;;;;18.10;5.97;;;25.00;99.90;;;;;;5043931;28;20026;-81
2022/05/25 08:00:14;;;;;;;21.65;6.57;;;25.20;99.90;;;;;;5047503;28;20025;-82
2022/05/25 08:05:49;;;;;;;17.45;6.70;;;25.50;99.90;;;;;;5035335;28;20143;-81
2022/05/25 08:08:23;;;;;;;16.02;5.72;;;25.60;99.90;;;;;;5042421;28;20021;-81
2022/05/25 08:11:04;;;;;;;17.67;7.13;;;25.80;99.90;;;;;;5037203;28;20120;-81
2022/05/25 08:13:32;;;;;;;18.55;6.40;;;25.80;99.90;;;;;;5041304;28;20014;-82
2022/05/25 08:15:58;;;;;;;16.65;6.22;;;25.90;99.90;;;;;;5039524;28;20026;-82
2022/05/25 08:18:24;;;;;;;23.92;6.45;;;26.00;99.90;;;;;;5042620;28;20021;-82
2022/05/25 08:20:50;;;;;;;18.60;6.47;;;26.10;99.90;;;;;;5026301;28;20029;-82
2022/05/25 08:23:17;;;;;;;18.42;5.95;;;26.40;99.90;;;;;;5041397;28;20566;-82
2022/05/25 08:25:44;;;;;;;20.90;6.50;;;26.60;99.90;;;;;;5036921;28;20045;-82
2022/05/25 08:28:11;;;;;;;20.65;6.10;;;26.80;99.90;;;;;;5024723;28;20021;-82
2022/05/25 08:30:39;;;;;;;20.13;6.70;;;27.00;99.90;;;;;;5020669;28;20466;-81
2022/05/25 08:33:06;;;;;;;19.83;5.85;;;27.10;99.90;;;;;;5040121;28;20651;-81
2022/05/25 08:35:31;;;;;;;14.68;5.70;;;27.20;99.90;;;;;;5045906;28;20026;-82
2022/05/25 08:38:00;;;;;;;16.25;5.78;;;27.30;99.90;;;;;;5041519;28;20083;-83
2022/05/25 08:40:28;;;;;;;19.02;6.90;;;27.50;99.90;;;;;;5027969;28;20041;-81
2022/05/25 08:42:56;;;;;;;17.70;5.50;;;27.50;99.90;;;;;;5041571;28;20100;-82
2022/05/25 08:45:26;;;;;;;16.88;5.93;;;27.50;99.90;;;;;;5036959;28;20033;-81
2022/05/25 08:47:56;;;;;;;15.32;6.30;;;27.30;99.90;;;;;;5021333;28;20017;-81
2022/05/25 08:50:23;;;;;;;12.73;5.50;;;27.40;99.90;;;;;;5036232;28;20045;-81
2022/05/25 08:52:48;;;;;;;18.63;6.80;;;27.50;99.90;;;;;;5035961;28;20021;-82
2022/05/25 08:55:41;;;;;;;19.95;6.20;;;27.20;99.90;;;;;;5027473;28;20521;-82
2022/05/25 08:58:09;;;;;;;19.33;6.88;;;26.60;99.90;;;;;;5035131;28;20079;-82
2022/05/25 09:00:35;;;;;;;20.08;7.07;;;26.30;99.90;;;;;;5039117;28;20037;-81
2022/05/25 09:03:04;;;;;;;22.02;7.13;;;26.40;99.90;;;;;;5042261;28;20471;-81
2022/05/25 09:05:40;;;;;;;17.58;7.30;;;26.30;99.90;;;;;;5038895;28;20383;-82
2022/05/25 09:08:25;;;;;;;18.83;6.63;;;26.30;99.90;;;;;;5023401;28;20023;-82
2022/05/25 09:10:59;;;;;;;18.17;5.60;;;26.40;99.90;;;;;;5043281;28;20259;-81
2022/05/25 09:13:51;;;;;;;18.45;6.22;;;26.60;99.90;;;;;;5039712;28;20541;-82
2022/05/25 09:16:20;;;;;;;17.23;6.32;;;26.90;99.90;;;;;;5040457;28;20084;-82
2022/05/25 09:19:03;;;;;;;18.02;6.47;;;27.20;99.90;;;;;;5032321;28;20037;-81
2022/05/25 09:21:52;;;;;;;24.63;8.02;;;27.00;99.90;;;;;;5041769;28;20017;-81
2022/05/25 09:24:22;;;;;;;22.50;7.60;;;26.20;99.90;;;;;;5029860;28;20033;-82
2022/05/25 09:26:48;;;;;;;23.48;7.80;;;25.40;99.90;;;;;;5025615;28;20056;-81
2022/05/25 09:29:14;;;;;;;24.65;7.93;;;24.70;99.90;;;;;;5045038;28;20061;-81
2022/05/25 09:32:06;;;;;;;20.60;7.88;;;24.30;99.90;;;;;;5040900;28;20087;-82
2022/05/25 09:34:42;;;;;;;24.58;8.73;;;24.20;99.90;;;;;;5035890;28;20060;-82
2022/05/25 09:37:40;;;;;;;16.90;7.63;;;24.10;99.90;;;;;;5022723;28;20172;-81
2022/05/25 09:40:19;;;;;;;18.88;7.72;;;24.20;99.90;;;;;;5025283;28;20060;-81
2022/05/25 09:42:51;;;;;;;18.42;7.53;;;24.10;99.90;;;;;;5014505;28;20022;-81
2022/05/25 09:45:17;;;;;;;29.48;8.30;;;24.20;99.90;;;;;;5020031;28;20074;-81
2022/05/25 09:47:45;;;;;;;24.95;8.93;;;24.00;99.90;;;;;;5022823;28;20397;-81
2022/05/25 09:50:32;;;;;;;22.77;8.50;;;23.70;99.90;;;;;;5044718;28;20210;-81
2022/05/25 09:53:06;;;;;;;23.90;7.95;;;23.70;99.90;;;;;;5020235;28;20060;-81
2022/05/25 09:55:37;;;;;;;20.00;8.18;;;24.20;99.90;;;;;;5023802;28;20536;-81
2022/05/25 09:58:07;;;;;;;25.98;8.13;;;24.30;99.90;;;;;;5023036;28;20025;-81
2022/05/25 10:00:33;;;;;;;20.02;8.90;;;24.00;99.90;;;;;;5020299;28;20423;-81
2022/05/25 10:03:06;;;;;;;18.38;8.05;;;24.00;99.90;;;;;;5038098;28;20067;-81
2022/05/25 10:05:48;;;;;;;21.45;8.02;;;24.10;99.90;;;;;;5043896;28;20030;-81
2022/05/25 10:08:23;;;;;;;21.10;8.13;;;24.20;99.90;;;;;;5022525;28;20424;-81
2022/05/25 10:10:52;;;;;;;21.42;8.05;;;24.10;99.90;;;;;;5041250;28;20119;-81
2022/05/25 10:13:25;;;;;;;20.05;7.90;;;24.30;99.90;;;;;;5035389;28;20526;-81
2022/05/25 10:15:51;;;;;;;23.58;8.35;;;24.40;99.90;;;;;;5016068;28;20056;-81
2022/05/25 10:18:35;;;;;;;22.50;7.95;;;24.30;99.90;;;;;;5020645;28;20469;-82
2022/05/25 10:21:02;;;;;;;21.67;7.80;;;24.30;99.90;;;;;;5034361;28;20570;-81
2022/05/25 10:23:28;;;;;;;21.33;8.27;;;24.40;99.90;;;;;;5036690;28;20036;-80
2022/05/25 10:25:58;;;;;;;18.45;7.50;;;24.70;99.90;;;;;;5041703;28;20033;-81
2022/05/25 10:28:32;;;;;;;19.30;7.32;;;24.90;99.90;;;;;;5015635;28;20026;-81
2022/05/25 10:36:58;;;;;;;19.40;7.85;;;25.50;99.90;;;;;;5037554;28;20029;-81
2022/05/25 10:39:35;;;;;;;22.35;8.07;;;25.80;99.90;;;;;;5012505;28;20385;-81
2022/05/25 10:42:03;;;;;;;20.10;7.50;;;26.00;99.90;;;;;;5016311;28;20055;-81
2022/05/25 10:45:07;;;;;;;19.35;7.68;;;26.00;99.90;;;;;;5031927;28;20045;-81
2022/05/25 10:50:32;;;;;;;26.17;7.97;;;25.70;99.90;;;;;;5033107;28;20052;-81
2022/05/25 10:53:00;;;;;;;18.98;7.45;;;25.90;99.90;;;;;;5008183;28;20657;-81
2022/05/25 10:55:34;;;;;;;16.30;8.30;;;25.80;99.90;;;;;;5033068;28;20510;-82
2022/05/25 10:58:18;;;;;;;26.80;7.95;;;25.70;99.90;;;;;;5017495;28;20044;-82
2022/05/25 11:01:08;;;;;;;18.33;8.38;;;25.90;99.90;;;;;;5039679;28;20018;-82
2022/05/25 11:03:54;;;;;;;21.38;8.05;;;26.00;99.90;;;;;;5037492;28;20020;-81
2022/05/25 11:06:34;;;;;;;22.80;8.10;;;25.60;99.90;;;;;;5020384;28;20611;-81
2022/05/25 11:09:29;;;;;;;24.73;8.55;;;25.10;99.90;;;;;;5033100;28;20087;-81
2022/05/25 11:12:23;;;;;;;25.52;8.48;;;24.70;99.90;;;;;;5030061;28;20029;-81
2022/05/25 11:15:17;;;;;;;27.73;9.15;;;24.30;99.90;;;;;;5033269;28;20029;-82
2022/05/25 11:18:08;;;;;;;28.50;9.43;;;23.90;99.90;;;;;;5038560;28;20026;-81
2022/05/25 11:20:45;;;;;;;21.92;8.55;;;23.70;99.90;;;;;;4982136;28;20026;-81
2022/05/25 11:23:49;;;;;;;35.88;10.00;;;23.60;99.90;;;;;;5038482;28;20033;-82
2022/05/25 11:26:30;;;;;;;31.83;9.32;;;23.60;99.90;;;;;;5025257;28;20041;-81
2022/05/25 11:29:06;;;;;;;23.05;9.40;;;23.60;99.90;;;;;;5023023;28;20491;-82
2022/05/25 11:31:35;;;;;;;27.05;9.65;;;23.50;99.90;;;;;;5041497;28;20025;-81
2022/05/25 11:34:01;;;;;;;24.60;8.98;;;23.60;99.90;;;;;;5025785;28;20119;-81
2022/05/25 11:37:05;;;;;;;33.95;10.02;;;23.70;99.90;;;;;;5041079;28;20076;-82
2022/05/25 11:40:22;;;;;;;27.65;9.75;;;23.60;99.90;;;;;;5042118;28;20025;-81
2022/05/25 11:43:12;;;;;;;28.98;9.48;;;23.60;99.90;;;;;;4995193;28;20057;-81
2022/05/25 11:45:56;;;;;;;34.70;9.55;;;23.50;99.90;;;;;;5036506;28;20041;-81
2022/05/25 11:48:24;;;;;;;33.08;10.18;;;23.60;99.90;;;;;;5035869;28;20022;-81
2022/05/25 11:51:29;;;;;;;38.13;11.60;;;23.50;99.90;;;;;;5018502;28;20128;-82
2022/05/25 11:54:06;;;;;;;31.60;12.60;;;22.70;99.90;;;;;;5031328;28;20038;-83
2022/05/25 11:57:00;;;;;;;30.67;12.95;;;21.80;99.90;;;;;;5021669;28;20037;-83
2022/05/25 11:59:56;;;;;;;35.70;13.30;;;21.60;99.90;;;;;;5032920;28;20412;-83
2022/05/25 12:02:44;;;;;;;28.23;11.75;;;21.60;99.90;;;;;;5022454;28;20129;-83
2022/05/25 12:05:38;;;;;;;32.75;11.57;;;22.00;99.90;;;;;;5042147;28;20669;-81
2022/05/25 12:08:07;;;;;;;29.65;11.23;;;22.40;99.90;;;;;;4948176;28;20143;-82
2022/05/25 12:10:38;;;;;;;25.73;11.05;;;22.40;99.90;;;;;;5025265;28;20028;-82
2022/05/25 12:13:45;;;;;;;33.65;10.80;;;22.40;99.90;;;;;;5022009;28;20017;-82
2022/05/25 12:16:17;;;;;;;30.85;11.20;;;22.50;99.90;;;;;;5031640;28;20059;-82
2022/05/25 12:19:01;;;;;;;37.90;10.63;;;22.60;99.90;;;;;;5025108;28;20491;-83
2022/05/25 12:21:46;;;;;;;32.28;11.40;;;22.80;99.90;;;;;;5018577;28;20025;-83
2022/05/25 12:24:20;;;;;;;37.60;9.65;;;23.30;99.90;;;;;;5018318;28;20108;-83
2022/05/25 12:26:46;;;;;;;35.92;10.38;;;23.70;99.90;;;;;;5040392;28;20270;-83
2022/05/25 12:29:18;;;;;;;29.95;9.63;;;24.10;99.90;;;;;;5042992;28;20133;-82
2022/05/25 12:31:46;;;;;;;32.13;9.00;;;24.20;99.90;;;;;;5038121;28;20029;-82
2022/05/25 12:34:14;;;;;;;32.17;8.43;;;25.20;99.90;;;;;;5016567;28;20116;-82
2022/05/25 12:36:42;;;;;;;28.10;9.45;;;27.90;99.90;;;;;;5020975;28;20020;-82
2022/05/25 12:39:11;;;;;;;23.83;8.63;;;29.60;99.90;;;;;;5023941;28;20024;-82
2022/05/25 12:41:39;;;;;;;26.27;8.25;;;29.60;99.90;;;;;;5021355;28;20021;-83
2022/05/25 12:50:01;;;;;;;32.25;8.73;;;27.70;99.90;;;;;;5034115;28;20091;-82
2022/05/25 12:52:26;;;;;;;27.27;9.60;;;26.20;99.90;;;;;;5038749;28;20025;-82
2022/05/25 12:55:13;;;;;;;30.27;10.88;;;25.10;99.90;;;;;;5045977;28;20025;-81
2022/05/25 12:57:51;;;;;;;47.83;10.15;;;24.40;99.90;;;;;;5020403;28;20395;-83
2022/05/25 13:00:40;;;;;;;42.97;10.30;;;24.00;99.90;;;;;;5043536;28;20018;-82
2022/05/25 13:03:34;;;;;;;34.72;9.32;;;24.10;99.90;;;;;;5018940;28;20025;-83
2022/05/25 13:06:00;;;;;;;33.08;9.23;;;24.90;99.90;;;;;;5017052;28;20037;-82
2022/05/25 13:08:50;;;;;;;29.65;9.23;;;26.00;99.90;;;;;;5037531;28;20016;-83
2022/05/25 13:11:41;;;;;;;26.42;7.82;;;26.90;99.90;;;;;;5008198;28;20487;-81
2022/05/25 13:14:20;;;;;;;26.10;7.30;;;28.90;99.90;;;;;;5035767;28;20034;-81
2022/05/25 13:16:46;;;;;;;27.77;7.53;;;32.90;99.90;;;;;;5038882;28;20026;-81
2022/05/25 13:19:38;;;;;;;29.23;7.75;;;34.40;99.90;;;;;;5045343;28;20013;-82
2022/05/25 13:22:06;;;;;;;24.10;7.30;;;32.60;99.90;;;;;;5037908;28;20038;-82
2022/05/25 13:25:03;;;;;;;27.23;7.07;;;33.80;99.90;;;;;;5028090;28;20067;-82
2022/05/25 13:28:13;;;;;;;25.58;7.45;;;33.90;99.90;;;;;;5040771;28;20021;-82
2022/05/25 13:30:38;;;;;;;32.30;6.93;;;35.30;99.90;;;;;;5036107;28;20025;-82
2022/05/25 13:33:28;;;;;;;26.60;7.78;;;34.70;99.90;;;;;;5021490;28;20120;-81